Henrietta, Ohio
Current Conditions -  °F | °C
As of 10:53 AM on Wednesday 26 Nov 2014 (Local Time) from KLPR Reporting Station
Overcast Overcast  
Wind Chill: 29°   Ceiling: 3100
Heat Index: 34°   Visibility: 10mi
Dew Point: 26°   Wind: 6mph
Humidity: 73%   Direction: NA
Pressure: 30.13"   Gusts: NA
Location:  41.3705°N, 82.2583°W
Report Text: KLPR 261553Z AUTO VRB05KT 10SM OVC031 01/M03 A3013 RMK AO2 SLP210 T00111033 TSNO
Loading
Personal Weather Stations






























Interactive Weather Map New forecast layout! Learn more

10-Day Weather Forecast

Advertisements
Track Severe Weather on mobile